createdAt,value
2022-10-14T00:00:06.044Z,18.87
2022-10-14T00:02:42.606Z,19.47
2022-10-14T00:05:12.138Z,20.30
2022-10-14T00:07:41.237Z,19.60
2022-10-14T00:10:10.596Z,20.10
2022-10-14T00:12:39.785Z,18.43
2022-10-14T00:15:10.026Z,18.33
2022-10-14T00:17:40.584Z,19.10
2022-10-14T00:20:10.898Z,19.83
2022-10-14T00:22:39.673Z,20.10
2022-10-14T00:25:09.298Z,18.80
2022-10-14T00:27:39.070Z,17.33
2022-10-14T00:30:14.342Z,18.57
2022-10-14T00:32:44.689Z,18.20
2022-10-14T00:35:13.554Z,18.50
2022-10-14T00:37:42.372Z,19.30
2022-10-14T00:40:13.152Z,19.10
2022-10-14T00:42:42.032Z,16.87
2022-10-14T00:45:17.231Z,17.80
2022-10-14T00:47:49.101Z,16.10
2022-10-14T00:50:19.944Z,18.30
2022-10-14T00:52:49.467Z,18.70
2022-10-14T00:55:20.742Z,19.57
2022-10-14T00:57:49.645Z,17.80
2022-10-14T01:00:21.035Z,17.27
2022-10-14T01:02:51.494Z,19.57
2022-10-14T01:05:21.933Z,18.23
2022-10-14T01:08:07.022Z,17.87
2022-10-14T01:10:48.232Z,18.17
2022-10-14T01:13:28.253Z,17.63
2022-10-14T01:16:16.665Z,18.60
2022-10-14T01:19:11.359Z,17.30
2022-10-14T01:21:49.845Z,18.30
2022-10-14T01:24:44.587Z,17.00
2022-10-14T01:28:00.597Z,17.43
2022-10-14T01:30:34.209Z,18.47
2022-10-14T01:33:14.433Z,19.00
2022-10-14T01:36:02.866Z,17.47
2022-10-14T01:38:37.365Z,15.90
2022-10-14T01:41:18.696Z,16.33
2022-10-14T01:43:51.828Z,17.77
2022-10-14T01:46:27.211Z,15.70
2022-10-14T01:49:03.280Z,17.47
2022-10-14T01:51:39.604Z,17.00
2022-10-14T01:54:16.430Z,18.27
2022-10-14T01:56:49.551Z,18.70
2022-10-14T01:59:23.778Z,18.53
2022-10-14T02:01:53.968Z,16.83
2022-10-14T02:04:24.749Z,17.97
2022-10-14T02:07:06.196Z,18.30
2022-10-14T02:09:50.079Z,16.75
2022-10-14T02:12:39.143Z,16.85
2022-10-14T02:15:21.029Z,18.93
2022-10-14T02:18:01.950Z,18.10
2022-10-14T02:20:37.719Z,18.20
2022-10-14T02:23:17.123Z,16.17
2022-10-14T02:25:49.332Z,17.57
2022-10-14T02:28:22.105Z,16.85
2022-10-14T02:30:59.072Z,17.98
2022-10-14T02:33:38.901Z,19.33
2022-10-14T02:36:13.102Z,18.27
2022-10-14T02:38:44.479Z,18.90
2022-10-14T02:41:19.723Z,20.60
2022-10-14T02:43:49.071Z,18.83
2022-10-14T02:46:25.553Z,18.27
2022-10-14T02:48:56.029Z,17.33
2022-10-14T02:51:24.926Z,19.87
2022-10-14T02:53:53.751Z,17.85
2022-10-14T02:56:22.425Z,18.20
2022-10-14T02:58:51.245Z,17.87
2022-10-14T03:01:19.988Z,17.10
2022-10-14T03:03:49.055Z,17.33
2022-10-14T03:06:21.712Z,17.90
2022-10-14T03:08:51.153Z,19.00
2022-10-14T03:11:20.684Z,18.57
2022-10-14T03:13:49.460Z,16.37
2022-10-14T03:16:18.387Z,16.87
2022-10-14T03:18:47.520Z,19.47
2022-10-14T03:21:25.616Z,16.43
2022-10-14T03:23:55.502Z,16.03
2022-10-14T03:26:33.398Z,16.13
2022-10-14T03:29:02.299Z,18.97
2022-10-14T03:31:49.710Z,17.00
2022-10-14T03:34:34.326Z,17.03
2022-10-14T03:37:14.650Z,16.37
2022-10-14T03:39:49.478Z,15.97
2022-10-14T03:42:19.506Z,15.63
2022-10-14T03:44:50.317Z,16.17
2022-10-14T03:47:29.068Z,17.63
2022-10-14T03:49:57.944Z,16.10
2022-10-14T03:52:37.138Z,15.60
2022-10-14T03:55:16.325Z,16.33
2022-10-14T03:57:47.104Z,16.23
2022-10-14T04:00:17.460Z,15.90
2022-10-14T04:02:51.524Z,16.80
2022-10-14T04:05:37.267Z,17.00
2022-10-14T04:08:18.801Z,16.53
2022-10-14T04:11:10.755Z,14.70
2022-10-14T04:13:41.951Z,17.20
2022-10-14T04:16:13.364Z,14.83
2022-10-14T04:19:00.858Z,17.17
2022-10-14T04:21:29.616Z,17.47
2022-10-14T04:24:04.825Z,16.88
2022-10-14T04:26:44.798Z,17.20
2022-10-14T04:29:19.413Z,17.47
2022-10-14T04:31:56.538Z,17.17
2022-10-14T04:34:25.557Z,17.03
2022-10-14T04:36:55.592Z,14.17
2022-10-14T04:39:44.364Z,16.55
2022-10-14T04:42:14.233Z,16.25
2022-10-14T04:44:45.896Z,16.65
2022-10-14T04:47:16.098Z,16.75
2022-10-14T04:49:49.738Z,17.30
2022-10-14T04:52:22.307Z,16.70
2022-10-14T04:55:00.997Z,15.98
2022-10-14T04:57:36.720Z,16.17
2022-10-14T05:00:06.663Z,19.05
2022-10-14T05:03:01.423Z,17.10
2022-10-14T05:05:35.440Z,17.07
2022-10-14T05:08:08.064Z,17.93
2022-10-14T05:10:41.797Z,16.57
2022-10-14T05:13:17.259Z,18.73
2022-10-14T05:15:56.715Z,17.30
2022-10-14T05:18:26.011Z,17.73
2022-10-14T05:21:01.850Z,17.50
2022-10-14T05:23:49.403Z,18.07
2022-10-14T05:26:19.873Z,16.67
2022-10-14T05:28:50.220Z,16.40
2022-10-14T05:31:20.238Z,16.20
2022-10-14T05:34:00.315Z,17.10
2022-10-14T05:36:29.216Z,17.43
2022-10-14T05:38:58.995Z,20.00
2022-10-14T05:41:34.003Z,17.40
2022-10-14T05:44:03.854Z,16.67
2022-10-14T05:46:32.774Z,15.20
2022-10-14T05:49:05.972Z,14.83
2022-10-14T05:51:37.457Z,15.50
2022-10-14T05:54:13.325Z,13.83
2022-10-14T05:56:45.847Z,15.20
2022-10-14T05:59:15.762Z,15.97
2022-10-14T06:01:44.636Z,16.67
2022-10-14T06:04:20.081Z,15.03
2022-10-14T06:06:48.959Z,16.53
2022-10-14T06:09:18.403Z,15.80
2022-10-14T06:11:48.558Z,14.67
2022-10-14T06:14:17.341Z,15.60
2022-10-14T06:16:51.031Z,16.37
2022-10-14T06:19:20.044Z,16.00
2022-10-14T06:21:48.787Z,17.73
2022-10-14T06:24:17.809Z,15.67
2022-10-14T06:26:48.549Z,15.27
2022-10-14T06:29:18.265Z,14.80
2022-10-14T06:31:46.976Z,14.13
2022-10-14T06:34:15.748Z,15.10
2022-10-14T06:36:44.518Z,14.93
2022-10-14T06:39:13.275Z,14.63
2022-10-14T06:41:41.956Z,20.00
2022-10-14T06:44:21.870Z,14.03
2022-10-14T06:46:50.706Z,16.33
2022-10-14T06:49:19.731Z,15.10
2022-10-14T06:51:48.460Z,14.83
2022-10-14T06:54:18.498Z,16.43
2022-10-14T06:56:47.200Z,16.60
2022-10-14T06:59:16.010Z,15.37
2022-10-14T07:01:46.194Z,16.87
2022-10-14T07:04:15.079Z,16.50
2022-10-14T07:06:44.024Z,15.80
2022-10-14T07:09:12.744Z,16.17
2022-10-14T07:11:42.859Z,16.30
2022-10-14T07:14:11.988Z,14.40
2022-10-14T07:16:40.713Z,15.23
2022-10-14T07:19:10.899Z,17.20
2022-10-14T07:21:39.739Z,14.30
2022-10-14T07:24:09.765Z,15.13
2022-10-14T07:26:38.558Z,15.93
2022-10-14T07:29:08.138Z,13.43
2022-10-14T07:31:37.228Z,14.23
2022-10-14T07:34:05.978Z,16.57
2022-10-14T07:36:36.245Z,15.57
2022-10-14T07:39:05.903Z,15.87
2022-10-14T07:41:35.048Z,16.70
2022-10-14T07:44:09.509Z,15.60
2022-10-14T07:46:41.895Z,15.37
2022-10-14T07:49:14.400Z,15.30
2022-10-14T07:51:45.831Z,14.80
2022-10-14T07:54:18.223Z,16.10
2022-10-14T07:56:49.349Z,15.77
2022-10-14T07:59:19.271Z,16.23
2022-10-14T08:01:49.203Z,14.63
2022-10-14T08:04:18.551Z,15.70
2022-10-14T08:06:50.704Z,16.27
2022-10-14T08:09:20.726Z,16.20
2022-10-14T08:11:50.184Z,15.93
2022-10-14T08:14:18.986Z,17.47
2022-10-14T08:16:48.181Z,18.40
2022-10-14T08:19:17.142Z,15.27
2022-10-14T08:21:45.986Z,17.10
2022-10-14T08:24:16.142Z,17.63
2022-10-14T08:26:55.190Z,17.13
2022-10-14T08:29:24.702Z,15.70
2022-10-14T08:31:55.335Z,16.33
2022-10-14T08:34:24.619Z,15.40
2022-10-14T08:36:53.659Z,17.57
2022-10-14T08:39:23.921Z,15.57
2022-10-14T08:42:23.727Z,16.60
2022-10-14T08:45:08.174Z,15.93
2022-10-14T08:47:42.306Z,14.80
2022-10-14T08:50:26.874Z,16.23
2022-10-14T08:53:04.114Z,16.50
2022-10-14T08:55:44.472Z,16.27
2022-10-14T08:58:22.868Z,14.97
2022-10-14T09:00:54.429Z,15.33
2022-10-14T09:03:26.926Z,14.10
2022-10-14T09:06:02.464Z,14.90
2022-10-14T09:08:39.563Z,15.50
2022-10-14T09:11:16.115Z,16.63
2022-10-14T09:13:49.572Z,15.40
2022-10-14T09:16:23.722Z,15.17
2022-10-14T09:18:56.954Z,15.30
2022-10-14T09:21:51.662Z,15.17
2022-10-14T09:24:24.811Z,15.80
2022-10-14T09:26:59.595Z,15.30
2022-10-14T09:29:31.709Z,16.13
2022-10-14T09:32:05.356Z,15.80
2022-10-14T09:34:39.983Z,14.97
2022-10-14T09:37:28.048Z,14.00
2022-10-14T09:40:02.218Z,13.57
2022-10-14T09:42:49.603Z,14.20
2022-10-14T09:45:22.815Z,13.60
2022-10-14T09:47:57.005Z,14.83
2022-10-14T09:50:32.594Z,13.07
2022-10-14T09:53:10.739Z,14.37
2022-10-14T09:55:49.366Z,12.27
2022-10-14T09:58:28.144Z,12.40
2022-10-14T10:01:00.932Z,12.90
2022-10-14T10:03:33.832Z,12.33
2022-10-14T10:06:07.803Z,13.60
2022-10-14T10:08:40.359Z,11.93
2022-10-14T10:11:14.067Z,13.57
2022-10-14T10:13:46.986Z,13.67
2022-10-14T10:16:26.266Z,12.20
2022-10-14T10:18:57.502Z,11.73
2022-10-14T10:21:30.174Z,14.03
2022-10-14T10:24:01.171Z,11.90
2022-10-14T10:26:33.610Z,12.93
2022-10-14T10:29:06.799Z,14.07
2022-10-14T10:31:58.282Z,14.03
2022-10-14T10:35:12.204Z,14.27
2022-10-14T10:37:54.973Z,14.10
2022-10-14T10:40:36.119Z,13.13
2022-10-14T10:43:39.349Z,14.57
2022-10-14T10:46:52.752Z,17.80
2022-10-14T10:49:52.107Z,13.30
2022-10-14T10:52:36.346Z,14.33
2022-10-14T10:55:19.447Z,14.50
2022-10-14T10:58:07.476Z,12.93
2022-10-14T11:00:49.791Z,13.23
2022-10-14T11:03:55.138Z,13.40
2022-10-14T11:06:49.491Z,13.47
2022-10-14T11:09:53.137Z,12.90
2022-10-14T11:12:33.077Z,13.40
2022-10-14T11:15:25.265Z,14.07
2022-10-14T11:18:03.758Z,12.03
2022-10-14T11:20:49.091Z,11.83
2022-10-14T11:23:57.243Z,11.00
2022-10-14T11:26:49.289Z,13.27
2022-10-14T11:29:46.368Z,12.73
2022-10-14T11:32:24.767Z,12.83
2022-10-14T11:35:13.638Z,13.50
2022-10-14T11:38:00.096Z,13.97
2022-10-14T11:40:39.324Z,13.47
2022-10-14T11:43:26.669Z,11.87
2022-10-14T11:46:02.003Z,11.70
2022-10-14T11:48:40.995Z,12.30
2022-10-14T11:51:20.352Z,12.53
2022-10-14T11:54:05.162Z,11.70
2022-10-14T11:56:43.785Z,14.53
2022-10-14T11:59:41.348Z,11.47
2022-10-14T12:02:39.375Z,13.00
2022-10-14T12:05:21.209Z,12.70
2022-10-14T12:08:07.361Z,13.50
2022-10-14T12:10:45.634Z,12.83
2022-10-14T12:13:21.768Z,12.47
2022-10-14T12:15:54.459Z,11.27
2022-10-14T12:18:24.054Z,14.10
2022-10-14T12:21:00.513Z,11.30
2022-10-14T12:23:38.285Z,13.17
2022-10-14T12:26:18.153Z,11.23
2022-10-14T12:28:48.448Z,13.30
2022-10-14T12:31:38.290Z,13.30
2022-10-14T12:34:33.182Z,11.77
2022-10-14T12:37:52.830Z,12.87
2022-10-14T12:40:31.308Z,11.10
2022-10-14T12:43:26.295Z,10.63
2022-10-14T12:46:14.485Z,11.77
2022-10-14T12:48:54.844Z,10.10
2022-10-14T12:51:27.457Z,10.50
2022-10-14T12:54:08.209Z,12.70
2022-10-14T12:56:44.321Z,10.30
2022-10-14T12:59:28.172Z,11.40
2022-10-14T13:02:00.531Z,11.10
2022-10-14T13:04:30.177Z,11.70
2022-10-14T13:07:41.590Z,9.63
2022-10-14T13:10:48.384Z,10.67
2022-10-14T13:13:52.899Z,10.20
2022-10-14T13:17:03.183Z,9.40
2022-10-14T13:19:46.830Z,9.70
2022-10-14T13:22:40.860Z,10.53
2022-10-14T13:25:22.814Z,10.10
2022-10-14T13:28:14.699Z,10.10
2022-10-14T13:31:00.244Z,9.03
2022-10-14T13:33:41.892Z,8.60
2022-10-14T13:36:20.807Z,7.93
2022-10-14T13:38:59.185Z,9.53
2022-10-14T13:41:31.444Z,10.20
2022-10-14T13:44:02.444Z,9.80
2022-10-14T13:46:40.802Z,9.40
2022-10-14T13:49:23.294Z,9.17
2022-10-14T13:51:56.629Z,8.03
2022-10-14T13:54:27.896Z,8.17
2022-10-14T14:02:47.225Z,8.00
2022-10-14T14:05:26.808Z,7.57
2022-10-14T14:08:31.731Z,7.50
2022-10-14T14:11:15.653Z,9.33
2022-10-14T14:13:59.203Z,7.60
2022-10-14T14:16:35.195Z,7.07
2022-10-14T14:19:10.047Z,8.23
2022-10-14T14:21:40.854Z,7.37
2022-10-14T14:24:19.872Z,7.17
2022-10-14T14:26:57.371Z,8.03
2022-10-14T14:29:29.565Z,8.33
2022-10-14T14:32:07.825Z,6.53
2022-10-14T14:34:40.228Z,6.97
2022-10-14T14:40:21.852Z,7.40
2022-10-14T14:42:55.184Z,7.00
2022-10-14T14:45:29.300Z,7.33
2022-10-14T14:48:04.032Z,9.20
2022-10-14T14:50:37.803Z,6.20
2022-10-14T14:53:15.412Z,7.77
2022-10-14T14:56:01.055Z,7.77
2022-10-14T14:58:36.026Z,6.83
2022-10-14T15:01:08.624Z,7.23
2022-10-14T15:04:12.074Z,7.20
2022-10-14T15:06:51.130Z,7.70
2022-10-14T15:09:37.248Z,7.00
2022-10-14T15:12:17.290Z,6.50
2022-10-14T15:14:49.193Z,7.67
2022-10-14T15:17:32.356Z,7.87
2022-10-14T15:20:29.811Z,6.90
2022-10-14T15:22:58.702Z,7.07
2022-10-14T15:25:33.427Z,6.87
2022-10-14T15:28:03.898Z,7.07
2022-10-14T15:30:55.753Z,7.00
2022-10-14T15:33:27.302Z,7.37
2022-10-14T15:36:00.172Z,7.20
2022-10-14T15:41:05.168Z,7.33
2022-10-14T15:43:35.047Z,7.53
2022-10-14T15:46:21.477Z,7.37
2022-10-14T15:48:53.433Z,6.83
2022-10-14T15:51:24.697Z,6.37
2022-10-14T15:53:53.522Z,7.60
2022-10-14T15:56:23.944Z,8.03
2022-10-14T15:58:52.744Z,7.50
2022-10-14T16:01:23.931Z,9.03
2022-10-14T16:03:53.396Z,6.97
2022-10-14T16:06:24.619Z,6.93
2022-10-14T16:08:53.541Z,7.43
2022-10-14T16:11:27.716Z,7.17
2022-10-14T16:13:57.037Z,7.43
2022-10-14T16:16:34.608Z,7.40
2022-10-14T16:19:03.697Z,7.80
2022-10-14T16:21:33.265Z,6.30
2022-10-14T16:24:04.327Z,7.00
2022-10-14T16:26:34.601Z,7.17
2022-10-14T16:29:03.869Z,7.37
2022-10-14T16:31:32.801Z,7.33
2022-10-14T16:34:01.998Z,8.23
2022-10-14T16:36:31.187Z,6.80
2022-10-14T16:39:01.837Z,7.30
2022-10-14T16:41:31.396Z,7.97
2022-10-14T16:44:01.558Z,7.97
2022-10-14T16:46:44.312Z,8.27
2022-10-14T16:49:14.337Z,7.93
2022-10-14T16:51:44.366Z,8.23
2022-10-14T16:54:13.742Z,8.07
2022-10-14T16:56:56.962Z,8.17
2022-10-14T16:59:28.512Z,8.47
2022-10-14T17:01:57.766Z,6.93
2022-10-14T17:04:27.233Z,7.97
2022-10-14T17:07:07.473Z,6.57
2022-10-14T17:09:39.071Z,8.20
2022-10-14T17:12:13.003Z,7.60
2022-10-14T17:14:44.512Z,8.80
2022-10-14T17:17:14.005Z,7.67
2022-10-14T17:19:44.721Z,8.90
2022-10-14T17:22:13.820Z,10.00
2022-10-14T17:24:42.597Z,10.30
2022-10-14T17:27:11.418Z,9.37
2022-10-14T17:29:40.358Z,10.47
2022-10-14T17:32:10.636Z,8.20
2022-10-14T17:34:39.437Z,10.07
2022-10-14T17:39:42.745Z,9.57
2022-10-14T17:42:11.471Z,8.17
2022-10-14T17:44:43.761Z,9.87
2022-10-14T17:47:14.327Z,9.93
2022-10-14T17:49:43.248Z,11.57
2022-10-14T17:52:12.365Z,10.33
2022-10-14T17:54:41.161Z,8.93
2022-10-14T17:57:10.009Z,9.37
2022-10-14T17:59:38.728Z,9.87
2022-10-14T18:02:09.755Z,10.37
2022-10-14T18:04:40.079Z,9.10
2022-10-14T18:07:08.809Z,10.27
2022-10-14T18:09:37.669Z,9.40
2022-10-14T18:12:09.157Z,8.80
2022-10-14T18:14:40.814Z,10.30
2022-10-14T18:17:12.489Z,9.60
2022-10-14T18:19:46.006Z,11.07
2022-10-14T18:22:17.281Z,10.07
2022-10-14T18:24:46.080Z,10.20
2022-10-14T18:27:14.839Z,9.30
2022-10-14T18:29:43.643Z,8.77
2022-10-14T18:32:12.468Z,8.90
2022-10-14T18:34:42.628Z,11.50
2022-10-14T18:37:11.881Z,9.10
2022-10-14T18:39:40.626Z,10.03
2022-10-14T18:42:09.450Z,9.60
2022-10-14T18:44:38.176Z,9.00
2022-10-14T18:47:07.598Z,9.17
2022-10-14T18:49:39.913Z,10.77
2022-10-14T18:52:11.369Z,11.60
2022-10-14T18:54:40.298Z,10.60
2022-10-14T18:57:10.182Z,11.43
2022-10-14T18:59:38.972Z,10.73
2022-10-14T19:02:10.080Z,9.00
2022-10-14T19:04:38.843Z,10.17
2022-10-14T19:07:08.561Z,9.70
2022-10-14T19:09:38.772Z,10.70
2022-10-14T19:12:22.107Z,10.10
2022-10-14T19:14:50.999Z,9.47
2022-10-14T19:17:19.729Z,10.40
2022-10-14T19:19:48.589Z,7.90
2022-10-14T19:22:17.357Z,8.80
2022-10-14T19:24:50.204Z,8.40
2022-10-14T19:27:19.078Z,8.57
2022-10-14T19:29:48.135Z,11.20
2022-10-14T19:32:17.015Z,10.10
2022-10-14T19:34:47.448Z,9.17
2022-10-14T19:37:16.501Z,9.80
2022-10-14T19:39:46.816Z,10.20
2022-10-14T19:42:15.626Z,9.53
2022-10-14T19:44:44.587Z,10.30
2022-10-14T19:47:13.422Z,11.17
2022-10-14T19:49:42.391Z,7.80
2022-10-14T19:52:11.266Z,8.30
2022-10-14T19:54:40.215Z,9.57
2022-10-14T19:57:10.469Z,8.43
2022-10-14T19:59:39.362Z,7.77
2022-10-14T20:02:08.236Z,10.03
2022-10-14T20:04:37.097Z,8.87
2022-10-14T20:07:05.934Z,7.80
2022-10-14T20:09:34.872Z,8.00
2022-10-14T20:12:04.323Z,7.90
2022-10-14T20:14:35.957Z,7.70
2022-10-14T20:17:05.103Z,8.60
2022-10-14T20:19:34.230Z,7.40
2022-10-14T20:22:03.119Z,8.80
2022-10-14T20:24:32.441Z,10.20
2022-10-14T20:27:01.820Z,8.83
2022-10-14T20:29:30.675Z,8.23
2022-10-14T20:32:02.234Z,8.73
2022-10-14T20:34:31.571Z,9.80
2022-10-14T20:37:00.443Z,9.27
2022-10-14T20:39:29.387Z,10.67
2022-10-14T20:41:59.715Z,9.43
2022-10-14T20:44:28.534Z,8.93
2022-10-14T20:46:58.621Z,9.10
2022-10-14T20:49:28.855Z,10.20
2022-10-14T20:51:58.163Z,10.20
2022-10-14T20:54:27.506Z,9.73
2022-10-14T20:56:56.942Z,11.90
2022-10-14T20:59:26.245Z,10.37
2022-10-14T21:01:55.423Z,9.67
2022-10-14T21:04:24.215Z,9.60
2022-10-14T21:06:55.116Z,9.33
2022-10-14T21:09:24.176Z,10.53
2022-10-14T21:14:23.095Z,11.70
2022-10-14T21:16:52.026Z,12.10
2022-10-14T21:19:22.096Z,10.80
2022-10-14T21:21:51.098Z,12.73
2022-10-14T21:24:22.425Z,12.23
2022-10-14T21:26:51.559Z,11.60
2022-10-14T21:29:21.751Z,10.97
2022-10-14T21:31:51.221Z,11.57
2022-10-14T21:34:20.201Z,11.80
2022-10-14T21:36:49.044Z,12.80
2022-10-14T21:39:20.320Z,10.80
2022-10-14T21:41:49.205Z,13.30
2022-10-14T21:44:21.330Z,12.53
2022-10-14T21:46:50.993Z,12.07
2022-10-14T21:49:19.905Z,14.87
2022-10-14T21:51:48.805Z,12.97
2022-10-14T21:54:17.945Z,13.00
2022-10-14T21:56:48.823Z,14.27
2022-10-14T21:59:19.689Z,13.50
2022-10-14T22:01:49.313Z,13.30
2022-10-14T22:04:18.573Z,14.03
2022-10-14T22:06:47.850Z,14.10
2022-10-14T22:09:16.990Z,15.27
2022-10-14T22:11:47.943Z,13.43
2022-10-14T22:14:31.205Z,13.50
2022-10-14T22:17:00.075Z,14.60
2022-10-14T22:19:28.894Z,15.70
2022-10-14T22:21:59.197Z,13.87
2022-10-14T22:24:28.202Z,17.37
2022-10-14T22:26:58.226Z,15.30
2022-10-14T22:29:27.619Z,14.87
2022-10-14T22:31:56.429Z,16.00
2022-10-14T22:34:25.234Z,13.97
2022-10-14T22:36:54.065Z,15.13
2022-10-14T22:39:24.893Z,17.40
2022-10-14T22:41:53.798Z,17.20
2022-10-14T22:44:24.298Z,15.80
2022-10-14T22:46:54.556Z,14.87
2022-10-14T22:49:23.467Z,15.07
2022-10-14T22:51:55.916Z,15.00
2022-10-14T22:54:25.934Z,17.03
2022-10-14T22:56:55.041Z,16.07
2022-10-14T22:59:25.296Z,16.90
2022-10-14T23:01:54.153Z,17.77
2022-10-14T23:04:22.903Z,14.57
2022-10-14T23:06:51.932Z,16.50
2022-10-14T23:09:20.722Z,15.60
2022-10-14T23:11:49.515Z,16.30
2022-10-14T23:14:18.543Z,16.00
2022-10-14T23:16:48.725Z,17.80
2022-10-14T23:19:17.504Z,18.17
2022-10-14T23:21:46.265Z,16.47
2022-10-14T23:24:15.170Z,16.50
2022-10-14T23:26:43.960Z,17.23
2022-10-14T23:29:13.445Z,15.10
2022-10-14T23:31:43.489Z,15.93
2022-10-14T23:34:15.625Z,15.93
2022-10-14T23:36:45.089Z,16.20
2022-10-14T23:39:14.380Z,16.10
2022-10-14T23:41:43.512Z,19.40
2022-10-14T23:44:13.180Z,15.53
2022-10-14T23:46:42.172Z,14.70
2022-10-14T23:49:25.412Z,15.70
2022-10-14T23:51:55.430Z,15.93
2022-10-14T23:54:25.041Z,16.70
2022-10-14T23:56:53.883Z,14.87
2022-10-14T23:59:22.777Z,15.50
